sensor_id;sensor_type;location;lat;lon;timestamp;P1;durP1;ratioP1;P2;durP2;ratioP2
8285;SDS011;4181;43.416;24.598;2023-11-21T00:02:19;1.73;;;1.37;;
8285;SDS011;4181;43.416;24.598;2023-11-21T00:04:45;3.00;;;1.63;;
8285;SDS011;4181;43.416;24.598;2023-11-21T00:07:15;2.37;;;1.70;;
8285;SDS011;4181;43.416;24.598;2023-11-21T00:09:41;2.47;;;1.87;;
8285;SDS011;4181;43.416;24.598;2023-11-21T00:12:07;2.43;;;1.60;;
8285;SDS011;4181;43.416;24.598;2023-11-21T00:14:35;3.77;;;1.97;;
8285;SDS011;4181;43.416;24.598;2023-11-21T00:17:02;1.47;;;1.37;;
8285;SDS011;4181;43.416;24.598;2023-11-21T00:19:27;1.63;;;1.53;;
8285;SDS011;4181;43.416;24.598;2023-11-21T00:21:53;1.67;;;1.53;;
8285;SDS011;4181;43.416;24.598;2023-11-21T00:24:19;3.23;;;1.30;;
8285;SDS011;4181;43.416;24.598;2023-11-21T00:26:44;3.50;;;1.40;;
8285;SDS011;4181;43.416;24.598;2023-11-21T00:29:09;1.30;;;1.20;;
8285;SDS011;4181;43.416;24.598;2023-11-21T00:31:36;1.07;;;1.03;;
8285;SDS011;4181;43.416;24.598;2023-11-21T00:34:04;1.83;;;1.40;;
8285;SDS011;4181;43.416;24.598;2023-11-21T00:36:30;1.80;;;1.37;;
8285;SDS011;4181;43.416;24.598;2023-11-21T00:38:57;3.03;;;1.13;;
8285;SDS011;4181;43.416;24.598;2023-11-21T00:41:22;2.17;;;1.60;;
8285;SDS011;4181;43.416;24.598;2023-11-21T00:43:48;3.13;;;1.60;;
8285;SDS011;4181;43.416;24.598;2023-11-21T00:46:13;1.80;;;1.33;;
8285;SDS011;4181;43.416;24.598;2023-11-21T00:48:39;3.80;;;1.53;;
8285;SDS011;4181;43.416;24.598;2023-11-21T00:51:04;1.60;;;1.33;;
8285;SDS011;4181;43.416;24.598;2023-11-21T00:53:31;1.37;;;1.27;;
8285;SDS011;4181;43.416;24.598;2023-11-21T00:55:57;1.70;;;1.60;;
8285;SDS011;4181;43.416;24.598;2023-11-21T00:58:23;0.90;;;0.90;;
8285;SDS011;4181;43.416;24.598;2023-11-21T01:00:49;2.13;;;1.70;;
8285;SDS011;4181;43.416;24.598;2023-11-21T01:03:15;1.50;;;1.40;;
8285;SDS011;4181;43.416;24.598;2023-11-21T01:05:40;5.93;;;1.93;;
8285;SDS011;4181;43.416;24.598;2023-11-21T01:08:06;1.40;;;1.20;;
8285;SDS011;4181;43.416;24.598;2023-11-21T01:10:31;2.10;;;1.63;;
8285;SDS011;4181;43.416;24.598;2023-11-21T01:12:56;1.77;;;1.10;;
8285;SDS011;4181;43.416;24.598;2023-11-21T01:15:23;1.20;;;1.10;;
8285;SDS011;4181;43.416;24.598;2023-11-21T01:17:51;1.97;;;1.33;;
8285;SDS011;4181;43.416;24.598;2023-11-21T01:20:17;1.80;;;1.43;;
8285;SDS011;4181;43.416;24.598;2023-11-21T01:22:42;1.50;;;1.33;;
8285;SDS011;4181;43.416;24.598;2023-11-21T01:25:08;1.77;;;1.53;;
8285;SDS011;4181;43.416;24.598;2023-11-21T01:27:34;1.73;;;0.97;;
8285;SDS011;4181;43.416;24.598;2023-11-21T01:30:00;1.03;;;1.03;;
8285;SDS011;4181;43.416;24.598;2023-11-21T01:32:26;1.73;;;1.40;;
8285;SDS011;4181;43.416;24.598;2023-11-21T01:34:53;3.13;;;2.63;;
8285;SDS011;4181;43.416;24.598;2023-11-21T01:37:21;3.60;;;1.93;;
8285;SDS011;4181;43.416;24.598;2023-11-21T01:39:47;2.00;;;1.40;;
8285;SDS011;4181;43.416;24.598;2023-11-21T01:42:12;2.07;;;1.27;;
8285;SDS011;4181;43.416;24.598;2023-11-21T01:44:38;1.60;;;1.50;;
8285;SDS011;4181;43.416;24.598;2023-11-21T01:47:05;1.87;;;1.50;;
8285;SDS011;4181;43.416;24.598;2023-11-21T01:49:34;1.20;;;1.00;;
8285;SDS011;4181;43.416;24.598;2023-11-21T01:52:01;1.90;;;1.10;;
8285;SDS011;4181;43.416;24.598;2023-11-21T01:54:26;1.13;;;1.03;;
8285;SDS011;4181;43.416;24.598;2023-11-21T01:56:56;1.67;;;1.10;;
8285;SDS011;4181;43.416;24.598;2023-11-21T01:59:27;1.40;;;1.10;;
8285;SDS011;4181;43.416;24.598;2023-11-21T02:01:59;0.97;;;0.87;;
8285;SDS011;4181;43.416;24.598;2023-11-21T02:04:24;0.80;;;0.80;;
8285;SDS011;4181;43.416;24.598;2023-11-21T02:06:50;1.67;;;1.50;;
8285;SDS011;4181;43.416;24.598;2023-11-21T02:09:16;1.03;;;0.93;;
8285;SDS011;4181;43.416;24.598;2023-11-21T02:11:42;1.00;;;0.90;;
8285;SDS011;4181;43.416;24.598;2023-11-21T02:14:09;1.60;;;1.50;;
8285;SDS011;4181;43.416;24.598;2023-11-21T02:16:36;2.50;;;1.10;;
8285;SDS011;4181;43.416;24.598;2023-11-21T02:19:03;1.83;;;1.07;;
8285;SDS011;4181;43.416;24.598;2023-11-21T02:21:34;4.80;;;1.27;;
8285;SDS011;4181;43.416;24.598;2023-11-21T02:24:01;2.80;;;1.50;;
8285;SDS011;4181;43.416;24.598;2023-11-21T02:26:27;1.40;;;1.30;;
8285;SDS011;4181;43.416;24.598;2023-11-21T02:28:52;2.87;;;0.90;;
8285;SDS011;4181;43.416;24.598;2023-11-21T02:31:18;1.33;;;1.23;;
8285;SDS011;4181;43.416;24.598;2023-11-21T02:33:44;1.30;;;1.20;;
8285;SDS011;4181;43.416;24.598;2023-11-21T02:36:09;1.93;;;1.20;;
8285;SDS011;4181;43.416;24.598;2023-11-21T02:38:35;1.20;;;1.10;;
8285;SDS011;4181;43.416;24.598;2023-11-21T02:41:00;1.27;;;1.17;;
8285;SDS011;4181;43.416;24.598;2023-11-21T02:43:26;4.93;;;1.93;;
8285;SDS011;4181;43.416;24.598;2023-11-21T02:45:51;5.40;;;1.20;;
8285;SDS011;4181;43.416;24.598;2023-11-21T02:48:16;0.90;;;0.90;;
8285;SDS011;4181;43.416;24.598;2023-11-21T02:50:42;1.13;;;0.90;;
8285;SDS011;4181;43.416;24.598;2023-11-21T02:53:09;0.97;;;0.97;;
8285;SDS011;4181;43.416;24.598;2023-11-21T02:55:35;1.23;;;1.10;;
8285;SDS011;4181;43.416;24.598;2023-11-21T02:58:01;2.17;;;1.27;;
8285;SDS011;4181;43.416;24.598;2023-11-21T03:00:28;3.27;;;0.80;;
8285;SDS011;4181;43.416;24.598;2023-11-21T03:02:55;1.07;;;0.90;;
8285;SDS011;4181;43.416;24.598;2023-11-21T03:05:21;2.97;;;1.00;;
8285;SDS011;4181;43.416;24.598;2023-11-21T03:07:46;1.13;;;0.83;;
8285;SDS011;4181;43.416;24.598;2023-11-21T03:10:12;1.60;;;0.97;;
8285;SDS011;4181;43.416;24.598;2023-11-21T03:12:38;3.83;;;2.50;;
8285;SDS011;4181;43.416;24.598;2023-11-21T03:15:06;15.20;;;8.33;;
8285;SDS011;4181;43.416;24.598;2023-11-21T03:17:32;14.00;;;8.27;;
8285;SDS011;4181;43.416;24.598;2023-11-21T03:20:01;12.67;;;6.40;;
8285;SDS011;4181;43.416;24.598;2023-11-21T03:22:28;4.23;;;2.80;;
8285;SDS011;4181;43.416;24.598;2023-11-21T03:24:53;1.10;;;1.00;;
8285;SDS011;4181;43.416;24.598;2023-11-21T03:27:19;0.70;;;0.70;;
8285;SDS011;4181;43.416;24.598;2023-11-21T03:29:44;0.80;;;0.80;;
8285;SDS011;4181;43.416;24.598;2023-11-21T03:32:11;1.40;;;1.17;;
8285;SDS011;4181;43.416;24.598;2023-11-21T03:34:41;0.90;;;0.90;;
8285;SDS011;4181;43.416;24.598;2023-11-21T03:37:20;2.00;;;1.03;;
8285;SDS011;4181;43.416;24.598;2023-11-21T03:39:46;2.60;;;1.40;;
8285;SDS011;4181;43.416;24.598;2023-11-21T03:42:12;1.43;;;1.20;;
8285;SDS011;4181;43.416;24.598;2023-11-21T03:44:37;12.47;;;7.13;;
8285;SDS011;4181;43.416;24.598;2023-11-21T03:47:03;2.73;;;1.97;;
8285;SDS011;4181;43.416;24.598;2023-11-21T03:49:28;1.67;;;1.23;;
8285;SDS011;4181;43.416;24.598;2023-11-21T03:51:54;2.20;;;1.50;;
8285;SDS011;4181;43.416;24.598;2023-11-21T03:54:20;1.73;;;1.30;;
8285;SDS011;4181;43.416;24.598;2023-11-21T03:56:46;1.07;;;0.97;;
8285;SDS011;4181;43.416;24.598;2023-11-21T03:59:11;3.00;;;1.73;;
8285;SDS011;4181;43.416;24.598;2023-11-21T04:01:37;3.63;;;2.30;;
8285;SDS011;4181;43.416;24.598;2023-11-21T04:04:02;2.10;;;1.73;;
8285;SDS011;4181;43.416;24.598;2023-11-21T04:06:29;1.10;;;1.00;;
8285;SDS011;4181;43.416;24.598;2023-11-21T04:08:55;2.67;;;1.60;;
8285;SDS011;4181;43.416;24.598;2023-11-21T04:11:20;1.43;;;1.33;;
8285;SDS011;4181;43.416;24.598;2023-11-21T04:13:46;0.97;;;0.90;;
8285;SDS011;4181;43.416;24.598;2023-11-21T04:16:12;1.63;;;0.97;;
8285;SDS011;4181;43.416;24.598;2023-11-21T04:18:38;1.80;;;1.70;;
8285;SDS011;4181;43.416;24.598;2023-11-21T04:21:05;1.33;;;0.90;;
8285;SDS011;4181;43.416;24.598;2023-11-21T04:23:31;1.67;;;1.00;;
8285;SDS011;4181;43.416;24.598;2023-11-21T04:25:57;0.80;;;0.80;;
8285;SDS011;4181;43.416;24.598;2023-11-21T04:28:24;1.33;;;1.23;;
8285;SDS011;4181;43.416;24.598;2023-11-21T04:30:50;1.33;;;0.93;;
8285;SDS011;4181;43.416;24.598;2023-11-21T04:33:15;2.00;;;1.57;;
8285;SDS011;4181;43.416;24.598;2023-11-21T04:35:41;1.03;;;1.00;;
8285;SDS011;4181;43.416;24.598;2023-11-21T04:38:07;1.70;;;1.60;;
8285;SDS011;4181;43.416;24.598;2023-11-21T04:40:32;3.23;;;1.43;;
8285;SDS011;4181;43.416;24.598;2023-11-21T04:42:58;1.20;;;1.10;;
8285;SDS011;4181;43.416;24.598;2023-11-21T04:45:23;4.67;;;2.70;;
8285;SDS011;4181;43.416;24.598;2023-11-21T04:47:49;2.87;;;2.13;;
8285;SDS011;4181;43.416;24.598;2023-11-21T04:50:14;3.00;;;1.30;;
8285;SDS011;4181;43.416;24.598;2023-11-21T04:52:40;2.57;;;1.60;;
8285;SDS011;4181;43.416;24.598;2023-11-21T04:55:05;8.10;;;1.30;;
8285;SDS011;4181;43.416;24.598;2023-11-21T04:57:36;1.30;;;1.20;;
8285;SDS011;4181;43.416;24.598;2023-11-21T05:00:02;2.27;;;1.30;;
8285;SDS011;4181;43.416;24.598;2023-11-21T05:02:31;1.03;;;0.93;;
8285;SDS011;4181;43.416;24.598;2023-11-21T05:04:59;1.63;;;1.53;;
8285;SDS011;4181;43.416;24.598;2023-11-21T05:07:25;1.40;;;1.30;;
8285;SDS011;4181;43.416;24.598;2023-11-21T05:09:54;1.20;;;1.10;;
8285;SDS011;4181;43.416;24.598;2023-11-21T05:12:26;1.10;;;1.00;;
8285;SDS011;4181;43.416;24.598;2023-11-21T05:14:52;0.90;;;0.90;;
8285;SDS011;4181;43.416;24.598;2023-11-21T05:17:17;1.17;;;1.07;;
8285;SDS011;4181;43.416;24.598;2023-11-21T05:19:43;0.90;;;0.90;;
8285;SDS011;4181;43.416;24.598;2023-11-21T05:22:10;2.63;;;1.70;;
8285;SDS011;4181;43.416;24.598;2023-11-21T05:24:37;2.17;;;1.27;;
8285;SDS011;4181;43.416;24.598;2023-11-21T05:27:04;1.50;;;1.40;;
8285;SDS011;4181;43.416;24.598;2023-11-21T05:29:29;1.50;;;0.90;;
8285;SDS011;4181;43.416;24.598;2023-11-21T05:31:55;2.57;;;1.97;;
8285;SDS011;4181;43.416;24.598;2023-11-21T05:34:20;2.60;;;2.40;;
8285;SDS011;4181;43.416;24.598;2023-11-21T05:36:48;1.50;;;1.40;;
8285;SDS011;4181;43.416;24.598;2023-11-21T05:39:14;5.67;;;1.63;;
8285;SDS011;4181;43.416;24.598;2023-11-21T05:41:42;1.60;;;1.37;;
8285;SDS011;4181;43.416;24.598;2023-11-21T05:44:08;23.57;;;14.27;;
8285;SDS011;4181;43.416;24.598;2023-11-21T05:46:34;30.13;;;13.60;;
8285;SDS011;4181;43.416;24.598;2023-11-21T05:49:02;29.93;;;13.90;;
8285;SDS011;4181;43.416;24.598;2023-11-21T05:51:28;15.03;;;5.97;;
8285;SDS011;4181;43.416;24.598;2023-11-21T05:53:53;8.93;;;4.67;;
8285;SDS011;4181;43.416;24.598;2023-11-21T05:56:19;16.77;;;9.47;;
8285;SDS011;4181;43.416;24.598;2023-11-21T05:58:44;27.53;;;13.77;;
8285;SDS011;4181;43.416;24.598;2023-11-21T06:01:10;13.13;;;7.77;;
8285;SDS011;4181;43.416;24.598;2023-11-21T06:03:38;16.97;;;6.10;;
8285;SDS011;4181;43.416;24.598;2023-11-21T06:06:03;16.27;;;6.97;;
8285;SDS011;4181;43.416;24.598;2023-11-21T06:08:29;3.33;;;2.57;;
8285;SDS011;4181;43.416;24.598;2023-11-21T06:10:55;2.10;;;1.53;;
8285;SDS011;4181;43.416;24.598;2023-11-21T06:13:20;2.27;;;1.50;;
8285;SDS011;4181;43.416;24.598;2023-11-21T06:15:49;2.23;;;1.77;;
8285;SDS011;4181;43.416;24.598;2023-11-21T06:18:20;2.33;;;2.13;;
8285;SDS011;4181;43.416;24.598;2023-11-21T06:20:46;3.20;;;2.60;;
8285;SDS011;4181;43.416;24.598;2023-11-21T06:23:11;4.67;;;3.77;;
8285;SDS011;4181;43.416;24.598;2023-11-21T06:25:47;5.90;;;5.37;;
8285;SDS011;4181;43.416;24.598;2023-11-21T06:28:13;5.83;;;4.53;;
8285;SDS011;4181;43.416;24.598;2023-11-21T06:30:42;3.13;;;2.60;;
8285;SDS011;4181;43.416;24.598;2023-11-21T06:33:30;3.73;;;2.70;;
8285;SDS011;4181;43.416;24.598;2023-11-21T06:35:54;7.20;;;4.83;;
8285;SDS011;4181;43.416;24.598;2023-11-21T06:38:20;5.20;;;3.73;;
8285;SDS011;4181;43.416;24.598;2023-11-21T06:40:46;4.20;;;2.70;;
8285;SDS011;4181;43.416;24.598;2023-11-21T06:43:11;3.43;;;2.53;;
8285;SDS011;4181;43.416;24.598;2023-11-21T06:45:38;5.07;;;2.80;;
8285;SDS011;4181;43.416;24.598;2023-11-21T06:48:04;4.13;;;2.10;;
8285;SDS011;4181;43.416;24.598;2023-11-21T06:50:29;2.77;;;2.50;;
8285;SDS011;4181;43.416;24.598;2023-11-21T06:52:55;5.23;;;2.70;;
8285;SDS011;4181;43.416;24.598;2023-11-21T06:55:20;2.43;;;2.10;;
8285;SDS011;4181;43.416;24.598;2023-11-21T06:57:45;8.70;;;2.90;;
8285;SDS011;4181;43.416;24.598;2023-11-21T07:00:12;4.10;;;3.30;;
8285;SDS011;4181;43.416;24.598;2023-11-21T07:02:38;4.43;;;3.57;;
8285;SDS011;4181;43.416;24.598;2023-11-21T07:05:04;4.00;;;3.30;;
8285;SDS011;4181;43.416;24.598;2023-11-21T07:07:30;5.80;;;3.50;;
8285;SDS011;4181;43.416;24.598;2023-11-21T07:09:56;9.40;;;3.63;;
8285;SDS011;4181;43.416;24.598;2023-11-21T07:12:21;6.60;;;4.13;;
8285;SDS011;4181;43.416;24.598;2023-11-21T07:14:48;14.37;;;8.60;;
8285;SDS011;4181;43.416;24.598;2023-11-21T07:17:14;16.70;;;9.27;;
8285;SDS011;4181;43.416;24.598;2023-11-21T07:19:41;19.03;;;9.43;;
8285;SDS011;4181;43.416;24.598;2023-11-21T07:22:06;14.83;;;9.13;;
8285;SDS011;4181;43.416;24.598;2023-11-21T07:24:33;9.70;;;6.47;;
8285;SDS011;4181;43.416;24.598;2023-11-21T07:26:59;10.43;;;7.27;;
8285;SDS011;4181;43.416;24.598;2023-11-21T07:29:25;15.43;;;7.93;;
8285;SDS011;4181;43.416;24.598;2023-11-21T07:31:52;12.70;;;7.33;;
8285;SDS011;4181;43.416;24.598;2023-11-21T07:34:18;12.43;;;7.53;;
8285;SDS011;4181;43.416;24.598;2023-11-21T07:36:45;14.13;;;8.60;;
8285;SDS011;4181;43.416;24.598;2023-11-21T07:39:11;13.13;;;9.83;;
8285;SDS011;4181;43.416;24.598;2023-11-21T07:41:36;12.47;;;8.43;;
8285;SDS011;4181;43.416;24.598;2023-11-21T07:44:03;11.37;;;7.70;;
8285;SDS011;4181;43.416;24.598;2023-11-21T07:46:30;15.20;;;10.07;;
8285;SDS011;4181;43.416;24.598;2023-11-21T07:48:55;12.63;;;7.47;;
8285;SDS011;4181;43.416;24.598;2023-11-21T07:51:21;14.27;;;6.90;;
8285;SDS011;4181;43.416;24.598;2023-11-21T07:53:47;11.57;;;6.00;;
8285;SDS011;4181;43.416;24.598;2023-11-21T07:56:12;14.70;;;6.73;;
8285;SDS011;4181;43.416;24.598;2023-11-21T07:58:38;11.87;;;5.70;;
8285;SDS011;4181;43.416;24.598;2023-11-21T08:01:03;9.13;;;6.23;;
8285;SDS011;4181;43.416;24.598;2023-11-21T08:03:30;10.87;;;6.67;;
8285;SDS011;4181;43.416;24.598;2023-11-21T08:05:56;9.03;;;5.20;;
8285;SDS011;4181;43.416;24.598;2023-11-21T08:08:23;6.53;;;4.80;;
8285;SDS011;4181;43.416;24.598;2023-11-21T08:10:49;9.47;;;5.97;;
8285;SDS011;4181;43.416;24.598;2023-11-21T08:13:24;10.63;;;7.03;;
8285;SDS011;4181;43.416;24.598;2023-11-21T08:15:53;8.57;;;5.30;;
8285;SDS011;4181;43.416;24.598;2023-11-21T08:18:19;10.97;;;6.60;;
8285;SDS011;4181;43.416;24.598;2023-11-21T08:20:44;17.60;;;6.10;;
8285;SDS011;4181;43.416;24.598;2023-11-21T08:23:13;14.00;;;7.00;;
8285;SDS011;4181;43.416;24.598;2023-11-21T08:25:40;20.27;;;8.93;;
8285;SDS011;4181;43.416;24.598;2023-11-21T08:28:07;19.77;;;9.53;;
8285;SDS011;4181;43.416;24.598;2023-11-21T08:30:32;20.37;;;10.67;;
8285;SDS011;4181;43.416;24.598;2023-11-21T08:32:58;19.53;;;11.47;;
8285;SDS011;4181;43.416;24.598;2023-11-21T08:35:24;20.63;;;12.03;;
8285;SDS011;4181;43.416;24.598;2023-11-21T08:37:53;18.43;;;11.43;;
8285;SDS011;4181;43.416;24.598;2023-11-21T08:40:18;18.63;;;10.80;;
8285;SDS011;4181;43.416;24.598;2023-11-21T08:42:46;24.03;;;11.43;;
8285;SDS011;4181;43.416;24.598;2023-11-21T08:45:13;19.67;;;10.90;;
8285;SDS011;4181;43.416;24.598;2023-11-21T08:47:42;15.80;;;8.73;;
8285;SDS011;4181;43.416;24.598;2023-11-21T08:50:09;39.47;;;20.27;;
8285;SDS011;4181;43.416;24.598;2023-11-21T08:52:37;27.23;;;13.90;;
8285;SDS011;4181;43.416;24.598;2023-11-21T08:55:05;27.67;;;15.33;;
8285;SDS011;4181;43.416;24.598;2023-11-21T08:57:37;13.63;;;8.07;;
8285;SDS011;4181;43.416;24.598;2023-11-21T09:00:04;8.73;;;5.83;;
8285;SDS011;4181;43.416;24.598;2023-11-21T09:02:35;11.13;;;6.40;;
8285;SDS011;4181;43.416;24.598;2023-11-21T09:05:02;10.33;;;6.27;;
8285;SDS011;4181;43.416;24.598;2023-11-21T09:07:28;13.53;;;6.10;;
8285;SDS011;4181;43.416;24.598;2023-11-21T09:09:55;11.77;;;7.60;;
8285;SDS011;4181;43.416;24.598;2023-11-21T09:12:21;9.63;;;5.87;;
8285;SDS011;4181;43.416;24.598;2023-11-21T09:14:46;10.83;;;5.10;;
8285;SDS011;4181;43.416;24.598;2023-11-21T09:17:12;8.87;;;4.53;;
8285;SDS011;4181;43.416;24.598;2023-11-21T09:19:37;8.93;;;4.60;;
8285;SDS011;4181;43.416;24.598;2023-11-21T09:22:05;6.90;;;4.30;;
8285;SDS011;4181;43.416;24.598;2023-11-21T09:24:31;7.97;;;4.53;;
8285;SDS011;4181;43.416;24.598;2023-11-21T09:26:57;6.50;;;3.77;;
8285;SDS011;4181;43.416;24.598;2023-11-21T09:29:23;8.87;;;3.97;;
8285;SDS011;4181;43.416;24.598;2023-11-21T09:31:48;6.17;;;3.60;;
8285;SDS011;4181;43.416;24.598;2023-11-21T09:34:16;11.47;;;3.83;;
8285;SDS011;4181;43.416;24.598;2023-11-21T09:36:44;6.23;;;3.97;;
8285;SDS011;4181;43.416;24.598;2023-11-21T09:39:10;6.70;;;3.50;;
8285;SDS011;4181;43.416;24.598;2023-11-21T09:41:43;6.87;;;3.50;;
8285;SDS011;4181;43.416;24.598;2023-11-21T09:44:13;4.33;;;3.30;;
8285;SDS011;4181;43.416;24.598;2023-11-21T09:46:44;6.40;;;3.90;;
8285;SDS011;4181;43.416;24.598;2023-11-21T09:49:16;6.13;;;4.17;;
8285;SDS011;4181;43.416;24.598;2023-11-21T09:51:44;7.37;;;3.97;;
8285;SDS011;4181;43.416;24.598;2023-11-21T09:54:11;6.03;;;3.37;;
8285;SDS011;4181;43.416;24.598;2023-11-21T09:56:41;6.67;;;3.03;;
8285;SDS011;4181;43.416;24.598;2023-11-21T09:59:07;7.33;;;3.63;;
8285;SDS011;4181;43.416;24.598;2023-11-21T10:01:38;6.37;;;3.40;;
8285;SDS011;4181;43.416;24.598;2023-11-21T10:04:05;6.17;;;4.10;;
8285;SDS011;4181;43.416;24.598;2023-11-21T10:06:36;6.93;;;4.57;;
8285;SDS011;4181;43.416;24.598;2023-11-21T10:09:04;6.60;;;3.77;;
8285;SDS011;4181;43.416;24.598;2023-11-21T10:11:36;11.80;;;4.37;;
8285;SDS011;4181;43.416;24.598;2023-11-21T10:14:06;4.40;;;3.40;;
8285;SDS011;4181;43.416;24.598;2023-11-21T10:16:35;7.10;;;4.23;;
8285;SDS011;4181;43.416;24.598;2023-11-21T10:19:04;10.00;;;4.73;;
8285;SDS011;4181;43.416;24.598;2023-11-21T10:21:33;9.33;;;4.90;;
8285;SDS011;4181;43.416;24.598;2023-11-21T10:23:58;9.47;;;4.90;;
8285;SDS011;4181;43.416;24.598;2023-11-21T10:26:24;4.73;;;2.67;;
8285;SDS011;4181;43.416;24.598;2023-11-21T10:28:58;5.77;;;3.77;;
8285;SDS011;4181;43.416;24.598;2023-11-21T10:31:27;4.87;;;2.27;;
8285;SDS011;4181;43.416;24.598;2023-11-21T10:33:53;2.87;;;1.97;;
8285;SDS011;4181;43.416;24.598;2023-11-21T10:36:27;3.03;;;2.40;;
8285;SDS011;4181;43.416;24.598;2023-11-21T10:38:54;3.73;;;2.43;;
8285;SDS011;4181;43.416;24.598;2023-11-21T10:41:23;2.80;;;2.20;;
8285;SDS011;4181;43.416;24.598;2023-11-21T10:43:48;3.33;;;2.40;;
8285;SDS011;4181;43.416;24.598;2023-11-21T10:46:14;4.97;;;1.10;;
8285;SDS011;4181;43.416;24.598;2023-11-21T10:48:43;1.00;;;0.90;;
8285;SDS011;4181;43.416;24.598;2023-11-21T10:51:09;2.47;;;1.10;;
8285;SDS011;4181;43.416;24.598;2023-11-21T10:53:43;4.10;;;1.90;;
8285;SDS011;4181;43.416;24.598;2023-11-21T10:56:10;1.37;;;0.97;;
8285;SDS011;4181;43.416;24.598;2023-11-21T10:58:43;2.30;;;1.70;;
8285;SDS011;4181;43.416;24.598;2023-11-21T11:01:09;1.27;;;1.17;;
8285;SDS011;4181;43.416;24.598;2023-11-21T11:03:39;2.40;;;2.00;;
8285;SDS011;4181;43.416;24.598;2023-11-21T11:06:08;1.90;;;1.27;;
8285;SDS011;4181;43.416;24.598;2023-11-21T11:08:39;1.83;;;1.13;;
8285;SDS011;4181;43.416;24.598;2023-11-21T11:11:05;1.57;;;1.00;;
8285;SDS011;4181;43.416;24.598;2023-11-21T11:13:31;1.60;;;1.50;;
8285;SDS011;4181;43.416;24.598;2023-11-21T11:16:00;7.20;;;5.73;;
8285;SDS011;4181;43.416;24.598;2023-11-21T11:18:32;2.07;;;1.13;;
8285;SDS011;4181;43.416;24.598;2023-11-21T11:21:09;2.33;;;2.10;;
8285;SDS011;4181;43.416;24.598;2023-11-21T11:26:54;1.47;;;1.30;;
8285;SDS011;4181;43.416;24.598;2023-11-21T11:29:38;1.40;;;1.30;;
8285;SDS011;4181;43.416;24.598;2023-11-21T11:32:16;2.30;;;1.60;;
8285;SDS011;4181;43.416;24.598;2023-11-21T11:35:17;1.20;;;1.10;;
8285;SDS011;4181;43.416;24.598;2023-11-21T11:37:47;1.30;;;1.00;;
8285;SDS011;4181;43.416;24.598;2023-11-21T11:40:13;1.13;;;1.03;;
8285;SDS011;4181;43.416;24.598;2023-11-21T11:42:40;1.70;;;1.40;;
8285;SDS011;4181;43.416;24.598;2023-11-21T11:45:21;1.60;;;1.23;;
8285;SDS011;4181;43.416;24.598;2023-11-21T11:47:47;1.43;;;1.33;;
8285;SDS011;4181;43.416;24.598;2023-11-21T11:50:13;2.00;;;1.40;;
8285;SDS011;4181;43.416;24.598;2023-11-21T11:52:42;1.83;;;1.63;;
8285;SDS011;4181;43.416;24.598;2023-11-21T11:55:13;1.53;;;1.10;;
8285;SDS011;4181;43.416;24.598;2023-11-21T11:57:43;1.23;;;1.10;;
8285;SDS011;4181;43.416;24.598;2023-11-21T12:00:10;2.30;;;1.63;;
8285;SDS011;4181;43.416;24.598;2023-11-21T12:02:37;3.93;;;1.83;;
8285;SDS011;4181;43.416;24.598;2023-11-21T12:05:14;2.10;;;1.47;;
8285;SDS011;4181;43.416;24.598;2023-11-21T12:07:50;2.63;;;1.47;;
8285;SDS011;4181;43.416;24.598;2023-11-21T12:10:26;4.57;;;1.40;;
8285;SDS011;4181;43.416;24.598;2023-11-21T12:13:00;3.97;;;1.67;;
8285;SDS011;4181;43.416;24.598;2023-11-21T12:15:32;6.13;;;3.23;;
8285;SDS011;4181;43.416;24.598;2023-11-21T12:17:58;3.37;;;2.30;;
8285;SDS011;4181;43.416;24.598;2023-11-21T12:20:24;1.97;;;1.37;;
8285;SDS011;4181;43.416;24.598;2023-11-21T12:22:54;6.03;;;2.83;;
8285;SDS011;4181;43.416;24.598;2023-11-21T12:25:26;2.70;;;1.50;;
8285;SDS011;4181;43.416;24.598;2023-11-21T12:27:59;3.10;;;1.50;;
8285;SDS011;4181;43.416;24.598;2023-11-21T12:30:26;1.60;;;1.30;;
8285;SDS011;4181;43.416;24.598;2023-11-21T12:32:55;2.67;;;1.67;;
8285;SDS011;4181;43.416;24.598;2023-11-21T12:35:22;1.93;;;1.50;;
8285;SDS011;4181;43.416;24.598;2023-11-21T12:37:50;1.73;;;1.20;;
8285;SDS011;4181;43.416;24.598;2023-11-21T12:40:17;2.47;;;1.53;;
8285;SDS011;4181;43.416;24.598;2023-11-21T12:42:46;2.00;;;1.53;;
8285;SDS011;4181;43.416;24.598;2023-11-21T12:47:44;3.37;;;2.23;;
8285;SDS011;4181;43.416;24.598;2023-11-21T12:50:10;1.77;;;1.60;;
8285;SDS011;4181;43.416;24.598;2023-11-21T12:52:45;2.00;;;1.57;;
8285;SDS011;4181;43.416;24.598;2023-11-21T12:55:22;2.60;;;1.70;;
8285;SDS011;4181;43.416;24.598;2023-11-21T12:57:54;3.83;;;2.30;;
8285;SDS011;4181;43.416;24.598;2023-11-21T13:00:33;6.53;;;4.13;;
8285;SDS011;4181;43.416;24.598;2023-11-21T13:03:02;4.90;;;3.33;;
8285;SDS011;4181;43.416;24.598;2023-11-21T13:05:33;4.43;;;2.27;;
8285;SDS011;4181;43.416;24.598;2023-11-21T13:08:01;2.77;;;1.67;;
8285;SDS011;4181;43.416;24.598;2023-11-21T13:10:29;1.80;;;1.53;;
8285;SDS011;4181;43.416;24.598;2023-11-21T13:13:00;2.07;;;1.50;;
8285;SDS011;4181;43.416;24.598;2023-11-21T13:15:30;3.27;;;2.53;;
8285;SDS011;4181;43.416;24.598;2023-11-21T13:18:01;3.03;;;2.27;;
8285;SDS011;4181;43.416;24.598;2023-11-21T13:20:26;4.60;;;2.47;;
8285;SDS011;4181;43.416;24.598;2023-11-21T13:22:55;1.80;;;1.50;;
8285;SDS011;4181;43.416;24.598;2023-11-21T13:25:26;2.27;;;1.50;;
8285;SDS011;4181;43.416;24.598;2023-11-21T13:27:53;3.53;;;2.10;;
8285;SDS011;4181;43.416;24.598;2023-11-21T13:30:19;1.70;;;1.20;;
8285;SDS011;4181;43.416;24.598;2023-11-21T13:32:53;4.17;;;2.07;;
8285;SDS011;4181;43.416;24.598;2023-11-21T13:35:26;1.83;;;1.43;;
8285;SDS011;4181;43.416;24.598;2023-11-21T13:38:07;1.67;;;1.57;;
8285;SDS011;4181;43.416;24.598;2023-11-21T13:40:35;3.13;;;1.83;;
8285;SDS011;4181;43.416;24.598;2023-11-21T13:43:11;3.60;;;2.30;;
8285;SDS011;4181;43.416;24.598;2023-11-21T13:45:40;2.87;;;2.40;;
8285;SDS011;4181;43.416;24.598;2023-11-21T13:48:07;4.83;;;2.47;;
8285;SDS011;4181;43.416;24.598;2023-11-21T13:50:35;2.07;;;1.63;;
8285;SDS011;4181;43.416;24.598;2023-11-21T13:53:07;5.90;;;3.77;;
8285;SDS011;4181;43.416;24.598;2023-11-21T13:55:48;4.33;;;2.00;;
8285;SDS011;4181;43.416;24.598;2023-11-21T13:58:14;3.90;;;2.50;;
8285;SDS011;4181;43.416;24.598;2023-11-21T14:00:47;2.83;;;1.70;;
8285;SDS011;4181;43.416;24.598;2023-11-21T14:03:20;6.93;;;2.10;;
8285;SDS011;4181;43.416;24.598;2023-11-21T14:05:47;2.80;;;2.10;;
8285;SDS011;4181;43.416;24.598;2023-11-21T14:08:22;5.47;;;3.60;;
8285;SDS011;4181;43.416;24.598;2023-11-21T14:10:53;3.17;;;2.10;;
8285;SDS011;4181;43.416;24.598;2023-11-21T14:13:24;3.70;;;1.83;;
8285;SDS011;4181;43.416;24.598;2023-11-21T14:15:50;3.23;;;1.93;;
8285;SDS011;4181;43.416;24.598;2023-11-21T14:18:25;5.30;;;2.40;;
8285;SDS011;4181;43.416;24.598;2023-11-21T14:20:55;5.30;;;3.63;;
8285;SDS011;4181;43.416;24.598;2023-11-21T14:23:21;5.67;;;2.47;;
8285;SDS011;4181;43.416;24.598;2023-11-21T14:25:48;3.00;;;2.43;;
8285;SDS011;4181;43.416;24.598;2023-11-21T14:28:14;3.27;;;2.17;;
8285;SDS011;4181;43.416;24.598;2023-11-21T14:30:40;3.43;;;2.40;;
8285;SDS011;4181;43.416;24.598;2023-11-21T14:33:07;2.37;;;1.80;;
8285;SDS011;4181;43.416;24.598;2023-11-21T14:35:35;3.07;;;1.53;;
8285;SDS011;4181;43.416;24.598;2023-11-21T14:38:01;2.43;;;1.80;;
8285;SDS011;4181;43.416;24.598;2023-11-21T14:40:30;4.90;;;2.20;;
8285;SDS011;4181;43.416;24.598;2023-11-21T14:43:01;2.63;;;2.13;;
8285;SDS011;4181;43.416;24.598;2023-11-21T14:45:33;3.50;;;2.00;;
8285;SDS011;4181;43.416;24.598;2023-11-21T14:47:59;2.67;;;2.17;;
8285;SDS011;4181;43.416;24.598;2023-11-21T14:50:41;4.00;;;2.70;;
8285;SDS011;4181;43.416;24.598;2023-11-21T14:53:10;3.80;;;2.57;;
8285;SDS011;4181;43.416;24.598;2023-11-21T14:55:38;3.83;;;1.77;;
8285;SDS011;4181;43.416;24.598;2023-11-21T14:58:04;4.23;;;2.30;;
8285;SDS011;4181;43.416;24.598;2023-11-21T15:00:30;5.70;;;2.97;;
8285;SDS011;4181;43.416;24.598;2023-11-21T15:03:04;3.63;;;2.43;;
8285;SDS011;4181;43.416;24.598;2023-11-21T15:05:30;2.70;;;2.40;;
8285;SDS011;4181;43.416;24.598;2023-11-21T15:07:56;3.53;;;2.80;;